createdAt,value
2023-01-29T00:00:37.964Z,-0.88
2023-01-29T00:03:05.810Z,-1.81
2023-01-29T00:05:35.179Z,-0.61
2023-01-29T00:08:02.365Z,-0.63
2023-01-29T00:10:29.558Z,-0.86
2023-01-29T00:13:16.942Z,-1.71
2023-01-29T00:15:58.992Z,-0.86
2023-01-29T00:18:27.437Z,-1.70
2023-01-29T00:20:54.683Z,-1.48
2023-01-29T00:23:22.322Z,-1.28
2023-01-29T00:26:08.971Z,-2.28
2023-01-29T00:29:12.892Z,-1.54
2023-01-29T00:32:13.999Z,-1.91
2023-01-29T00:34:54.535Z,-1.42
2023-01-29T00:37:21.677Z,-1.21
2023-01-29T00:39:48.683Z,-1.43
2023-01-29T00:42:34.229Z,-2.42
2023-01-29T00:45:01.228Z,-1.86
2023-01-29T00:47:33.326Z,-1.14
2023-01-29T00:50:01.913Z,-2.15
2023-01-29T00:52:29.612Z,-2.78
2023-01-29T00:54:59.008Z,-1.53
2023-01-29T00:57:28.472Z,-1.44
2023-01-29T00:59:55.926Z,-2.48
2023-01-29T01:02:42.295Z,-1.29
2023-01-29T01:05:18.304Z,-2.64
2023-01-29T01:07:51.293Z,-1.35
2023-01-29T01:10:32.129Z,-1.22
2023-01-29T01:13:20.931Z,-1.24
2023-01-29T01:16:01.917Z,-1.82
2023-01-29T01:18:32.080Z,-1.48
2023-01-29T01:20:59.745Z,-1.49
2023-01-29T01:23:28.034Z,-3.26
2023-01-29T01:26:15.003Z,-1.40
2023-01-29T01:29:15.918Z,-2.28
2023-01-29T01:32:17.085Z,-1.23
2023-01-29T01:35:17.910Z,-2.44
2023-01-29T01:38:19.026Z,-1.60
2023-01-29T01:40:53.882Z,-2.25
2023-01-29T01:43:21.015Z,-1.62
2023-01-29T01:45:48.659Z,-2.19
2023-01-29T01:48:27.182Z,-1.81
2023-01-29T01:51:03.555Z,-3.20
2023-01-29T01:53:38.597Z,-2.11
2023-01-29T01:56:09.514Z,-1.78
2023-01-29T01:58:58.879Z,-2.66
2023-01-29T02:01:30.031Z,-3.23
2023-01-29T02:04:21.754Z,-2.35
2023-01-29T02:07:08.552Z,-2.78
2023-01-29T02:09:41.497Z,-1.49
2023-01-29T02:12:30.134Z,-2.24
2023-01-29T02:15:11.772Z,-1.55
2023-01-29T02:17:39.899Z,-1.85
2023-01-29T02:20:24.919Z,-2.47
2023-01-29T02:23:34.216Z,-1.44
2023-01-29T02:27:12.928Z,-1.29
2023-01-29T02:30:19.977Z,-1.49
2023-01-29T02:33:37.271Z,-1.64
2023-01-29T02:36:35.167Z,-1.67
2023-01-29T02:39:15.680Z,-1.82
2023-01-29T02:42:06.308Z,-1.77
2023-01-29T02:44:54.395Z,-1.81
2023-01-29T02:47:36.657Z,-2.41
2023-01-29T02:50:26.602Z,-1.80
2023-01-29T02:53:16.175Z,-2.86
2023-01-29T02:56:22.452Z,-1.74
2023-01-29T02:59:01.031Z,-2.27
2023-01-29T03:01:40.791Z,-2.49
2023-01-29T03:04:14.548Z,-4.03
2023-01-29T03:06:49.669Z,-2.10
2023-01-29T03:09:28.995Z,-2.14
2023-01-29T03:12:42.978Z,-2.31
2023-01-29T03:15:53.999Z,-2.23
2023-01-29T03:19:02.111Z,-2.22
2023-01-29T03:22:06.055Z,-2.18
2023-01-29T03:25:16.051Z,-3.33
2023-01-29T03:28:10.867Z,-2.56
2023-01-29T03:31:32.124Z,-2.79
2023-01-29T03:34:37.063Z,-1.85
2023-01-29T03:37:14.175Z,-1.59
2023-01-29T03:39:42.397Z,-2.46
2023-01-29T03:42:21.338Z,-1.81
2023-01-29T03:44:54.427Z,-1.57
2023-01-29T03:48:12.622Z,-2.12
2023-01-29T03:51:00.906Z,-3.30
2023-01-29T03:53:40.048Z,-2.68
2023-01-29T03:56:34.842Z,-1.51
2023-01-29T03:59:05.747Z,-1.42
2023-01-29T04:02:26.090Z,-1.74
2023-01-29T04:05:36.065Z,-2.25
2023-01-29T04:08:31.116Z,-2.12
2023-01-29T04:11:11.517Z,-2.90
2023-01-29T04:14:00.135Z,-3.43
2023-01-29T04:17:09.054Z,-2.18
2023-01-29T04:20:52.027Z,-2.21
2023-01-29T04:23:33.194Z,-3.08
2023-01-29T04:26:23.795Z,-2.26
2023-01-29T04:29:34.039Z,-2.19
2023-01-29T04:32:41.796Z,-1.89
2023-01-29T04:35:26.582Z,-2.02
2023-01-29T04:38:08.267Z,-2.31
2023-01-29T04:40:59.569Z,-3.21
2023-01-29T04:44:11.673Z,-3.11
2023-01-29T04:47:30.220Z,-2.17
2023-01-29T04:50:43.405Z,-2.14
2023-01-29T04:53:22.942Z,-2.20
2023-01-29T04:55:59.868Z,-3.60
2023-01-29T04:59:08.131Z,-3.58
2023-01-29T05:01:42.690Z,-3.43
2023-01-29T05:04:25.181Z,-3.94
2023-01-29T05:06:53.544Z,-2.14
2023-01-29T05:09:21.772Z,-2.29
2023-01-29T05:12:09.045Z,-3.20
2023-01-29T05:14:52.451Z,-2.59
2023-01-29T05:17:20.749Z,-2.88
2023-01-29T05:20:10.283Z,-3.45
2023-01-29T05:23:11.024Z,-4.26
2023-01-29T05:25:52.934Z,-2.49
2023-01-29T05:28:20.350Z,-2.58
2023-01-29T05:31:09.263Z,-2.48
2023-01-29T05:33:52.774Z,-4.81
2023-01-29T05:36:33.994Z,-3.72
2023-01-29T05:39:06.822Z,-3.59
2023-01-29T05:41:44.525Z,-2.18
2023-01-29T05:44:28.405Z,-3.87
2023-01-29T05:47:06.843Z,-3.51
2023-01-29T05:52:38.563Z,-3.04
2023-01-29T05:55:22.947Z,-3.45
2023-01-29T05:58:26.251Z,-3.26
2023-01-29T06:01:29.265Z,-3.30
2023-01-29T06:04:21.058Z,-2.44
2023-01-29T06:06:51.162Z,-3.47
2023-01-29T06:09:21.616Z,-3.58
2023-01-29T06:12:05.012Z,-3.82
2023-01-29T06:14:50.591Z,-3.75
2023-01-29T06:17:23.449Z,-2.57
2023-01-29T06:19:57.584Z,-3.90
2023-01-29T06:22:49.708Z,-4.05
2023-01-29T06:25:24.307Z,-4.04
2023-01-29T06:28:13.240Z,-3.38
2023-01-29T06:31:37.407Z,-3.24
2023-01-29T06:34:21.731Z,-3.21
2023-01-29T06:36:52.689Z,-2.57
2023-01-29T06:42:38.870Z,-4.75
2023-01-29T06:45:19.871Z,-3.71
2023-01-29T06:47:47.032Z,-3.12
2023-01-29T06:50:14.088Z,-3.37
2023-01-29T06:52:41.318Z,-2.48
2023-01-29T06:55:08.857Z,-2.65
2023-01-29T06:57:36.318Z,-3.53
2023-01-29T07:00:04.614Z,-3.30
2023-01-29T07:03:05.989Z,-2.74
2023-01-29T07:10:10.287Z,-3.46
2023-01-29T07:12:57.169Z,-2.90
2023-01-29T07:15:58.249Z,-2.74
2023-01-29T07:18:41.315Z,-1.96
2023-01-29T07:21:08.657Z,-1.95
2023-01-29T07:23:36.140Z,-2.29
2023-01-29T07:26:05.088Z,-1.71
2023-01-29T07:28:32.417Z,-1.66
2023-01-29T07:31:20.256Z,-2.32
2023-01-29T07:34:21.127Z,-2.03
2023-01-29T07:37:02.255Z,-1.58
2023-01-29T07:39:29.496Z,-1.61
2023-01-29T07:41:56.445Z,-1.16
2023-01-29T07:44:27.218Z,-1.85
2023-01-29T07:47:23.096Z,-1.88
2023-01-29T07:50:04.841Z,-0.86
2023-01-29T07:52:37.418Z,-2.62
2023-01-29T07:55:07.035Z,-1.66
2023-01-29T07:57:39.826Z,-0.16
2023-01-29T08:00:10.440Z,0.07
2023-01-29T08:02:41.833Z,0.03
2023-01-29T08:05:09.623Z,-1.04
2023-01-29T08:07:39.939Z,-0.04
2023-01-29T08:10:09.587Z,-1.76
2023-01-29T08:13:03.257Z,-1.68
2023-01-29T08:15:47.795Z,-2.48
2023-01-29T08:18:18.554Z,-0.83
2023-01-29T08:21:06.530Z,-1.35
2023-01-29T08:24:07.206Z,-0.62
2023-01-29T08:26:48.750Z,-2.00
2023-01-29T08:29:36.499Z,-1.15
2023-01-29T08:35:10.037Z,0.98
2023-01-29T08:37:45.232Z,0.45
2023-01-29T08:40:15.981Z,1.33
2023-01-29T08:42:45.345Z,-0.18
2023-01-29T08:45:12.571Z,0.44
2023-01-29T08:47:49.153Z,0.59
2023-01-29T08:50:18.277Z,1.81
2023-01-29T08:52:47.417Z,2.25
2023-01-29T08:55:27.221Z,1.91
2023-01-29T08:58:28.159Z,1.56
2023-01-29T09:01:29.260Z,1.28
2023-01-29T09:04:10.435Z,0.88
2023-01-29T09:06:37.633Z,2.04
2023-01-29T09:09:04.881Z,3.11
2023-01-29T09:11:52.192Z,3.12
2023-01-29T09:14:37.582Z,2.18
2023-01-29T09:17:05.160Z,1.90
2023-01-29T09:19:33.632Z,1.13
2023-01-29T09:22:00.643Z,1.90
2023-01-29T09:24:40.129Z,1.13
2023-01-29T09:27:30.147Z,0.92
2023-01-29T09:30:31.340Z,1.19
2023-01-29T09:33:12.535Z,2.14
2023-01-29T09:35:43.657Z,0.10
2023-01-29T09:38:11.329Z,2.42
2023-01-29T09:40:54.209Z,2.31
2023-01-29T09:43:39.777Z,2.26
2023-01-29T09:46:30.855Z,2.42
2023-01-29T09:49:32.243Z,2.89
2023-01-29T09:52:06.192Z,1.29
2023-01-29T09:54:40.171Z,3.23
2023-01-29T09:57:16.349Z,3.02
2023-01-29T10:00:15.013Z,2.93
2023-01-29T10:03:55.469Z,3.00
2023-01-29T10:06:51.369Z,3.94
2023-01-29T10:09:43.416Z,4.06
2023-01-29T10:12:58.249Z,4.73
2023-01-29T10:15:57.637Z,4.24
2023-01-29T10:18:53.186Z,3.51
2023-01-29T10:21:46.255Z,3.23
2023-01-29T10:24:38.945Z,3.50
2023-01-29T10:27:17.796Z,2.50
2023-01-29T10:30:08.218Z,3.24
2023-01-29T10:32:50.423Z,2.87
2023-01-29T10:35:23.770Z,2.98
2023-01-29T10:38:15.216Z,3.21
2023-01-29T10:41:29.218Z,3.88
2023-01-29T10:44:39.664Z,3.88
2023-01-29T10:47:20.297Z,3.40
2023-01-29T10:50:34.473Z,4.14
2023-01-29T10:57:29.748Z,3.95
2023-01-29T11:00:13.424Z,4.61
2023-01-29T11:02:46.989Z,3.67
2023-01-29T11:05:44.238Z,4.78
2023-01-29T11:08:17.023Z,4.99
2023-01-29T11:11:07.539Z,4.87
2023-01-29T11:14:06.227Z,5.74
2023-01-29T11:17:07.278Z,4.30
2023-01-29T11:20:31.325Z,4.97
2023-01-29T11:23:46.355Z,5.38
2023-01-29T11:26:27.121Z,4.72
2023-01-29T11:29:14.423Z,5.63
2023-01-29T11:32:03.657Z,6.55
2023-01-29T11:34:33.656Z,6.35
2023-01-29T11:37:15.735Z,6.08
2023-01-29T11:39:51.639Z,7.31
2023-01-29T11:42:23.337Z,6.87
2023-01-29T11:44:50.482Z,7.35
2023-01-29T11:47:24.492Z,7.55
2023-01-29T11:50:00.545Z,7.60
2023-01-29T11:52:36.807Z,6.94
2023-01-29T11:55:07.446Z,7.53
2023-01-29T11:58:02.416Z,6.96
2023-01-29T12:00:49.464Z,5.27
2023-01-29T12:03:23.885Z,7.19
2023-01-29T12:06:01.435Z,7.19
2023-01-29T12:08:36.949Z,5.67
2023-01-29T12:11:37.267Z,6.84
2023-01-29T12:14:38.802Z,7.01
2023-01-29T12:17:18.612Z,6.15
2023-01-29T12:19:55.619Z,6.22
2023-01-29T12:22:29.966Z,5.44
2023-01-29T12:25:04.344Z,3.74
2023-01-29T12:28:09.584Z,4.27
2023-01-29T12:31:19.367Z,5.89
2023-01-29T12:34:28.199Z,5.91
2023-01-29T12:37:38.363Z,4.14
2023-01-29T12:40:26.869Z,5.47
2023-01-29T12:42:59.854Z,5.57
2023-01-29T12:45:29.537Z,5.05
2023-01-29T12:48:06.235Z,3.62
2023-01-29T12:50:35.482Z,4.85
2023-01-29T12:53:07.925Z,5.48
2023-01-29T12:55:44.106Z,5.43
2023-01-29T12:58:23.484Z,5.35
2023-01-29T13:01:38.495Z,5.64
2023-01-29T13:04:31.280Z,5.90
2023-01-29T13:07:23.820Z,5.84
2023-01-29T13:10:07.037Z,4.60
2023-01-29T13:13:05.398Z,4.46
2023-01-29T13:16:07.457Z,5.55
2023-01-29T13:18:54.160Z,4.46
2023-01-29T13:21:31.660Z,5.16
2023-01-29T13:24:21.083Z,5.37
2023-01-29T13:26:49.705Z,5.32
2023-01-29T13:29:40.713Z,5.21
2023-01-29T13:32:39.921Z,4.49
2023-01-29T13:35:33.663Z,6.11
2023-01-29T13:38:36.314Z,5.39
2023-01-29T13:41:06.907Z,6.01
2023-01-29T13:43:41.874Z,5.33
2023-01-29T13:46:18.264Z,5.01
2023-01-29T13:48:50.313Z,5.96
2023-01-29T13:51:22.378Z,5.10
2023-01-29T13:54:06.668Z,5.27
2023-01-29T13:56:34.281Z,6.28
2023-01-29T13:59:03.777Z,4.85
2023-01-29T14:01:49.585Z,6.31
2023-01-29T14:04:21.901Z,6.25
2023-01-29T14:07:13.403Z,5.65
2023-01-29T14:10:19.089Z,4.74
2023-01-29T14:13:26.517Z,4.56
2023-01-29T14:16:10.696Z,6.31
2023-01-29T14:18:47.952Z,6.25
2023-01-29T14:21:28.662Z,4.90
2023-01-29T14:24:12.756Z,5.71
2023-01-29T14:26:45.720Z,6.36
2023-01-29T14:29:41.498Z,5.14
2023-01-29T14:32:25.324Z,4.42
2023-01-29T14:35:01.548Z,6.10
2023-01-29T14:37:37.920Z,6.06
2023-01-29T14:40:26.489Z,5.96
2023-01-29T14:43:32.404Z,4.72
2023-01-29T14:46:36.554Z,5.99
2023-01-29T14:49:04.242Z,5.39
2023-01-29T14:51:38.627Z,4.38
2023-01-29T14:54:27.186Z,5.22
2023-01-29T14:57:06.063Z,4.97
2023-01-29T14:59:38.360Z,4.06
2023-01-29T15:02:39.958Z,4.43
2023-01-29T15:05:32.316Z,5.59
2023-01-29T15:08:43.745Z,5.99
2023-01-29T15:11:52.606Z,4.80
2023-01-29T15:15:01.929Z,4.81
2023-01-29T15:17:40.336Z,5.72
2023-01-29T15:20:27.524Z,5.50
2023-01-29T15:23:14.415Z,3.98
2023-01-29T15:26:04.244Z,3.49
2023-01-29T15:28:33.828Z,4.55
2023-01-29T15:31:27.450Z,4.20
2023-01-29T15:34:08.274Z,4.51
2023-01-29T15:36:39.921Z,4.58
2023-01-29T15:39:09.988Z,5.22
2023-01-29T15:41:37.609Z,5.11
2023-01-29T15:44:13.716Z,3.55
2023-01-29T15:46:44.078Z,3.12
2023-01-29T15:49:22.835Z,4.88
2023-01-29T15:52:13.552Z,4.48
2023-01-29T15:55:19.755Z,4.26
2023-01-29T15:58:01.786Z,2.83
2023-01-29T16:00:30.408Z,4.82
2023-01-29T16:04:17.675Z,4.71
2023-01-29T16:07:02.194Z,3.81
2023-01-29T16:09:30.081Z,3.77
2023-01-29T16:12:18.419Z,3.12
2023-01-29T16:15:01.260Z,2.39
2023-01-29T16:17:35.556Z,2.91
2023-01-29T16:20:49.001Z,2.31
2023-01-29T16:23:35.388Z,2.22
2023-01-29T16:26:07.603Z,2.83
2023-01-29T16:28:44.964Z,3.40
2023-01-29T16:31:40.578Z,1.69
2023-01-29T16:34:37.369Z,2.11
2023-01-29T16:37:33.661Z,2.64
2023-01-29T16:40:01.029Z,2.35
2023-01-29T16:42:30.756Z,1.64
2023-01-29T16:45:21.086Z,1.61
2023-01-29T16:48:22.263Z,1.19
2023-01-29T16:50:55.579Z,2.81
2023-01-29T16:53:25.350Z,1.64
2023-01-29T16:56:12.498Z,2.17
2023-01-29T16:59:15.389Z,1.50
2023-01-29T17:02:18.476Z,0.66
2023-01-29T17:05:18.446Z,1.79
2023-01-29T17:08:05.482Z,2.43
2023-01-29T17:10:52.397Z,1.45
2023-01-29T17:13:52.523Z,2.41
2023-01-29T17:16:36.343Z,1.62
2023-01-29T17:19:32.522Z,1.94
2023-01-29T17:22:15.197Z,1.52
2023-01-29T17:25:02.462Z,0.33
2023-01-29T17:27:46.063Z,1.18
2023-01-29T17:30:36.504Z,0.93
2023-01-29T17:33:22.854Z,2.13
2023-01-29T17:35:50.664Z,1.86
2023-01-29T17:38:26.071Z,1.67
2023-01-29T17:41:07.357Z,2.01
2023-01-29T17:43:35.135Z,0.76
2023-01-29T17:46:02.565Z,0.90
2023-01-29T17:48:31.081Z,1.34
2023-01-29T17:51:18.449Z,0.95
2023-01-29T17:54:19.600Z,1.29
2023-01-29T17:57:20.947Z,1.24
2023-01-29T18:00:01.699Z,1.86
2023-01-29T18:02:30.061Z,0.18
2023-01-29T18:05:17.785Z,0.87
2023-01-29T18:07:58.271Z,0.85
2023-01-29T18:10:25.479Z,1.68
2023-01-29T18:13:12.579Z,1.02
2023-01-29T18:15:53.333Z,1.33
2023-01-29T18:18:22.387Z,0.54
2023-01-29T18:20:50.621Z,1.37
2023-01-29T18:23:17.903Z,1.50
2023-01-29T18:25:45.363Z,0.37
2023-01-29T18:28:32.539Z,1.21
2023-01-29T18:31:33.473Z,1.15
2023-01-29T18:34:14.212Z,-0.92
2023-01-29T18:36:41.387Z,-0.09
2023-01-29T18:39:08.647Z,-0.61
2023-01-29T18:41:35.886Z,0.39
2023-01-29T18:44:03.028Z,0.07
2023-01-29T18:46:30.197Z,-0.45
2023-01-29T18:48:57.360Z,0.72
2023-01-29T18:51:24.400Z,0.52
2023-01-29T18:53:52.473Z,-1.22
2023-01-29T18:56:20.016Z,-0.20
2023-01-29T18:58:51.899Z,0.12
2023-01-29T19:01:23.708Z,0.02
2023-01-29T19:04:10.545Z,-1.23
2023-01-29T19:07:12.527Z,-0.19
2023-01-29T19:09:58.776Z,0.17
2023-01-29T19:12:48.502Z,0.96
2023-01-29T19:15:29.749Z,1.00
2023-01-29T19:17:57.568Z,1.15
2023-01-29T19:20:24.891Z,0.55
2023-01-29T19:22:52.091Z,0.98
2023-01-29T19:25:19.938Z,-0.56
2023-01-29T19:27:47.723Z,0.19
2023-01-29T19:30:34.699Z,0.90
2023-01-29T19:33:15.838Z,0.89
2023-01-29T19:35:46.560Z,-1.30
2023-01-29T19:38:19.003Z,0.47
2023-01-29T19:41:06.486Z,-0.08
2023-01-29T19:43:48.400Z,0.66
2023-01-29T19:46:16.004Z,-0.35
2023-01-29T19:48:43.429Z,0.51
2023-01-29T19:51:12.382Z,-0.13
2023-01-29T19:53:44.308Z,-0.13
2023-01-29T19:56:15.213Z,-0.18
2023-01-29T19:58:43.296Z,0.33
2023-01-29T20:01:16.784Z,-0.21
2023-01-29T20:03:48.580Z,-0.38
2023-01-29T20:06:18.965Z,-0.55
2023-01-29T20:08:46.926Z,0.09
2023-01-29T20:11:15.568Z,0.48
2023-01-29T20:14:05.576Z,-0.12
2023-01-29T20:17:07.847Z,0.07
2023-01-29T20:20:10.572Z,0.06
2023-01-29T20:22:51.727Z,-0.60
2023-01-29T20:25:39.547Z,-1.93
2023-01-29T20:28:20.757Z,-0.85
2023-01-29T20:31:07.739Z,-1.67
2023-01-29T20:33:48.733Z,-0.03
2023-01-29T20:36:16.584Z,-1.15
2023-01-29T20:38:45.171Z,-1.89
2023-01-29T20:41:17.938Z,-0.56
2023-01-29T20:43:51.066Z,-2.00
2023-01-29T20:46:19.833Z,-0.23
2023-01-29T20:48:47.377Z,-0.83
2023-01-29T20:51:17.833Z,-0.84
2023-01-29T20:53:58.714Z,-0.46
2023-01-29T20:56:45.795Z,-0.63
2023-01-29T20:59:17.708Z,-0.76
2023-01-29T21:01:47.290Z,-0.36
2023-01-29T21:04:17.579Z,-0.73
2023-01-29T21:06:45.835Z,-0.06
2023-01-29T21:09:17.032Z,-0.99
2023-01-29T21:12:04.703Z,-0.15
2023-01-29T21:15:05.649Z,-0.46
2023-01-29T21:18:10.556Z,-0.17
2023-01-29T21:21:12.802Z,0.05
2023-01-29T21:23:42.253Z,-1.69
2023-01-29T21:26:30.659Z,0.11
2023-01-29T21:29:35.252Z,-1.49
2023-01-29T21:32:16.619Z,-1.46
2023-01-29T21:34:44.864Z,-1.26
2023-01-29T21:37:12.096Z,-0.57
2023-01-29T21:39:39.547Z,-0.91
2023-01-29T21:42:45.596Z,-2.28
2023-01-29T21:45:46.629Z,0.24
2023-01-29T21:48:27.509Z,0.13
2023-01-29T21:50:54.744Z,-0.16
2023-01-29T21:53:22.838Z,-2.26
2023-01-29T21:55:56.812Z,-2.10
2023-01-29T21:59:00.760Z,-1.47
2023-01-29T22:01:37.867Z,-1.02
2023-01-29T22:04:08.836Z,-0.73
2023-01-29T22:06:35.964Z,-1.76
2023-01-29T22:09:03.091Z,-1.24
2023-01-29T22:11:53.135Z,-0.37
2023-01-29T22:14:51.638Z,-2.38
2023-01-29T22:17:52.555Z,-1.76
2023-01-29T22:21:22.259Z,-0.07
2023-01-29T22:23:53.394Z,-0.68
2023-01-29T22:26:21.836Z,-0.45
2023-01-29T22:28:49.256Z,-0.67
2023-01-29T22:31:16.728Z,-1.48
2023-01-29T22:33:43.787Z,-1.72
2023-01-29T22:36:11.279Z,-0.64
2023-01-29T22:38:38.503Z,-2.30
2023-01-29T22:41:05.675Z,-1.67
2023-01-29T22:43:52.658Z,-1.39
2023-01-29T22:46:33.321Z,-0.77
2023-01-29T22:49:00.415Z,-0.68
2023-01-29T22:51:27.838Z,-2.25
2023-01-29T22:53:56.697Z,-1.51
2023-01-29T22:56:43.562Z,-1.61
2023-01-29T22:59:44.554Z,-2.11
2023-01-29T23:02:45.594Z,-1.81
2023-01-29T23:05:47.654Z,-2.23
2023-01-29T23:08:25.637Z,-1.08
2023-01-29T23:10:53.067Z,-3.06
2023-01-29T23:13:40.631Z,-1.12
2023-01-29T23:16:27.658Z,-3.18
2023-01-29T23:18:56.990Z,-3.38
2023-01-29T23:21:26.431Z,-3.32
2023-01-29T23:24:10.210Z,-3.08
2023-01-29T23:27:05.341Z,-2.75
2023-01-29T23:30:02.732Z,-3.44
2023-01-29T23:33:06.515Z,-2.08
2023-01-29T23:36:07.638Z,-1.29
2023-01-29T23:38:51.304Z,-2.29
2023-01-29T23:41:21.479Z,-1.16
2023-01-29T23:43:56.465Z,-3.46
2023-01-29T23:46:25.305Z,-3.53
2023-01-29T23:48:52.769Z,-1.76
2023-01-29T23:51:20.065Z,-2.16
2023-01-29T23:53:49.807Z,-3.49
2023-01-29T23:56:20.354Z,-3.13
2023-01-29T23:58:55.474Z,-3.35
